AAL1548 KSYR-CYHZ
Flight info
| Callsign | AAL1548 |
|---|---|
| Flight time | N/A |
| Altitude | 35000 |
| Route | SYR DCT MPV DCT FRIAR DCT EBONY FUNDY5 |
| Aircraft | A21N/M-SDE2E3FGHIRWXY/LB1 |
Departure
| Time | 2026-04-20 08:50 |
|---|---|
| Airport | Syracuse Hancock International Airport (KSYR) |
Arrival
| Time | N/A |
|---|---|
| Airport | Halifax / Stanfield International Airport (CYHZ) |
| Time | Latitude | Longitude | Altitude | Speed | Heading |
|---|---|---|---|---|---|
| 2026-04-20 08:03 | 43.11308 | -76.10873 | 430 ft | 0 kts | 267° |
| 2026-04-20 08:29 | 43.11309 | -76.10860 | 422 ft | 4 kts | 256° |
| 2026-04-20 08:30 | 43.11321 | -76.10838 | 418 ft | 4 kts | 196° |
| 2026-04-20 08:30 | 43.11344 | -76.10834 | 416 ft | 1 kts | 178° |
| 2026-04-20 08:30 | 43.11348 | -76.10835 | 423 ft | 0 kts | 178° |
| 2026-04-20 08:34 | 43.11343 | -76.10834 | 416 ft | 2 kts | 177° |
| 2026-04-20 08:35 | 43.11320 | -76.10826 | 419 ft | 5 kts | 165° |
| 2026-04-20 08:35 | 43.11280 | -76.10818 | 419 ft | 7 kts | 176° |
| 2026-04-20 08:35 | 43.11232 | -76.10824 | 424 ft | 7 kts | 202° |
| 2026-04-20 08:35 | 43.11203 | -76.10885 | 418 ft | 9 kts | 261° |
| 2026-04-20 08:36 | 43.11195 | -76.10954 | 426 ft | 7 kts | 261° |
| 2026-04-20 08:36 | 43.11186 | -76.11028 | 426 ft | 9 kts | 262° |
| 2026-04-20 08:36 | 43.11178 | -76.11089 | 429 ft | 7 kts | 248° |
| 2026-04-20 08:36 | 43.11151 | -76.11153 | 426 ft | 9 kts | 251° |
| 2026-04-20 08:37 | 43.11144 | -76.11217 | 423 ft | 4 kts | 267° |
| 2026-04-20 08:37 | 43.11143 | -76.11229 | 426 ft | 0 kts | 265° |
| 2026-04-20 08:43 | 43.11143 | -76.11236 | 420 ft | 2 kts | 265° |
| 2026-04-20 08:44 | 43.11137 | -76.11273 | 429 ft | 5 kts | 243° |
| 2026-04-20 08:44 | 43.11100 | -76.11297 | 423 ft | 7 kts | 188° |
| 2026-04-20 08:44 | 43.11046 | -76.11302 | 423 ft | 5 kts | 178° |
| 2026-04-20 08:44 | 43.11007 | -76.11294 | 423 ft | 7 kts | 153° |
| 2026-04-20 08:45 | 43.10990 | -76.11228 | 428 ft | 9 kts | 84° |
| 2026-04-20 08:45 | 43.10994 | -76.11136 | 430 ft | 11 kts | 87° |
| 2026-04-20 08:45 | 43.10998 | -76.11027 | 430 ft | 12 kts | 87° |
| 2026-04-20 08:45 | 43.11001 | -76.10902 | 430 ft | 14 kts | 88° |
| 2026-04-20 08:46 | 43.11005 | -76.10761 | 421 ft | 16 kts | 88° |
| 2026-04-20 08:46 | 43.11008 | -76.10606 | 430 ft | 17 kts | 88° |
| 2026-04-20 08:46 | 43.11015 | -76.10439 | 420 ft | 18 kts | 88° |
| 2026-04-20 08:46 | 43.11021 | -76.10259 | 429 ft | 19 kts | 87° |
| 2026-04-20 08:47 | 43.11028 | -76.10068 | 430 ft | 21 kts | 87° |
| 2026-04-20 08:47 | 43.11035 | -76.09868 | 430 ft | 22 kts | 88° |
| 2026-04-20 08:47 | 43.11040 | -76.09662 | 432 ft | 17 kts | 88° |
| 2026-04-20 08:47 | 43.11046 | -76.09493 | 421 ft | 18 kts | 87° |
| 2026-04-20 08:48 | 43.11050 | -76.09346 | 430 ft | 9 kts | 87° |
| 2026-04-20 08:48 | 43.11018 | -76.09269 | 422 ft | 12 kts | 163° |
| 2026-04-20 08:48 | 43.10969 | -76.09263 | 428 ft | 4 kts | 180° |
| 2026-04-20 08:48 | 43.10934 | -76.09270 | 427 ft | 6 kts | 213° |
| 2026-04-20 08:49 | 43.10927 | -76.09334 | 434 ft | 8 kts | 270° |
| 2026-04-20 08:49 | 43.10925 | -76.09420 | 434 ft | 11 kts | 267° |
| 2026-04-20 08:49 | 43.10913 | -76.09777 | 426 ft | 71 kts | 268° |
| 2026-04-20 08:49 | 43.10882 | -76.10725 | 425 ft | 126 kts | 268° |
| 2026-04-20 08:50 | 43.10839 | -76.12100 | 569 ft | 153 kts | 268° |
| 2026-04-20 08:50 | 43.10797 | -76.13490 | 1280 ft | 143 kts | 269° |
| 2026-04-20 08:50 | 43.10767 | -76.14853 | 1827 ft | 152 kts | 271° |
| 2026-04-20 08:50 | 43.10802 | -76.16383 | 2216 ft | 171 kts | 284° |
| 2026-04-20 08:51 | 43.11439 | -76.17836 | 2699 ft | 191 kts | 317° |
| 2026-04-20 08:51 | 43.12705 | -76.18758 | 3101 ft | 223 kts | 339° |
| 2026-04-20 08:51 | 43.14314 | -76.19027 | 3782 ft | 243 kts | 1° |
| 2026-04-20 08:51 | 43.15961 | -76.18282 | 4650 ft | 260 kts | 28° |
| 2026-04-20 08:52 | 43.17234 | -76.16441 | 5517 ft | 275 kts | 58° |
| 2026-04-20 08:52 | 43.17960 | -76.13982 | 6397 ft | 283 kts | 69° |
| 2026-04-20 08:52 | 43.18584 | -76.11387 | 7233 ft | 289 kts | 70° |
| 2026-04-20 08:52 | 43.19229 | -76.08744 | 8057 ft | 295 kts | 69° |
| 2026-04-20 08:53 | 43.19899 | -76.06095 | 8916 ft | 301 kts | 69° |
| 2026-04-20 08:53 | 43.20616 | -76.03331 | 9787 ft | 307 kts | 68° |
| 2026-04-20 08:53 | 43.21348 | -76.00542 | 10459 ft | 320 kts | 68° |
| 2026-04-20 08:53 | 43.22114 | -75.97611 | 10856 ft | 341 kts | 68° |
| 2026-04-20 08:54 | 43.22944 | -75.94448 | 11250 ft | 360 kts | 68° |
| 2026-04-20 08:54 | 43.23806 | -75.91177 | 11983 ft | 367 kts | 68° |
| 2026-04-20 08:54 | 43.24675 | -75.87869 | 12827 ft | 371 kts | 68° |
| 2026-04-20 08:54 | 43.25560 | -75.84509 | 13673 ft | 376 kts | 68° |
| 2026-04-20 08:55 | 43.26453 | -75.81123 | 14448 ft | 380 kts | 68° |
| 2026-04-20 08:55 | 43.27354 | -75.77672 | 15170 ft | 385 kts | 68° |
| 2026-04-20 08:55 | 43.28256 | -75.74185 | 15853 ft | 391 kts | 68° |
| 2026-04-20 08:55 | 43.29184 | -75.70650 | 16558 ft | 396 kts | 68° |
| 2026-04-20 08:56 | 43.30110 | -75.67119 | 17253 ft | 401 kts | 69° |
| 2026-04-20 08:56 | 43.31046 | -75.63489 | 17949 ft | 405 kts | 69° |
| 2026-04-20 08:56 | 43.32000 | -75.59810 | 18624 ft | 410 kts | 69° |
| 2026-04-20 08:56 | 43.32968 | -75.56112 | 19223 ft | 413 kts | 69° |
| 2026-04-20 08:57 | 43.33937 | -75.52383 | 19817 ft | 416 kts | 69° |
| 2026-04-20 08:57 | 43.34912 | -75.48614 | 20410 ft | 419 kts | 69° |
| 2026-04-20 08:57 | 43.35885 | -75.44836 | 20988 ft | 422 kts | 69° |
| 2026-04-20 08:57 | 43.36876 | -75.41021 | 21527 ft | 425 kts | 70° |
| 2026-04-20 08:58 | 43.37874 | -75.37178 | 22054 ft | 429 kts | 70° |
| 2026-04-20 08:58 | 43.38873 | -75.33304 | 22607 ft | 432 kts | 70° |
| 2026-04-20 08:58 | 43.39879 | -75.29393 | 23165 ft | 435 kts | 70° |
| 2026-04-20 08:58 | 43.40890 | -75.25448 | 23720 ft | 438 kts | 70° |
| 2026-04-20 08:59 | 43.41894 | -75.21526 | 24160 ft | 442 kts | 71° |
| 2026-04-20 08:59 | 43.42918 | -75.17518 | 24589 ft | 446 kts | 71° |
| 2026-04-20 08:59 | 43.43949 | -75.13480 | 25004 ft | 450 kts | 71° |
| 2026-04-20 08:59 | 43.44985 | -75.09394 | 25433 ft | 454 kts | 71° |
| 2026-04-20 09:00 | 43.46027 | -75.05276 | 25817 ft | 458 kts | 71° |
| 2026-04-20 09:00 | 43.47083 | -75.01114 | 26177 ft | 463 kts | 71° |
| 2026-04-20 09:00 | 43.48153 | -74.96902 | 26567 ft | 467 kts | 72° |
| 2026-04-20 09:00 | 43.49227 | -74.92650 | 26931 ft | 471 kts | 72° |
| 2026-04-20 09:01 | 43.50314 | -74.88370 | 27310 ft | 475 kts | 72° |
| 2026-04-20 09:01 | 43.51392 | -74.84053 | 27677 ft | 479 kts | 72° |
| 2026-04-20 09:01 | 43.52449 | -74.79691 | 28028 ft | 482 kts | 73° |
| 2026-04-20 09:01 | 43.53539 | -74.75302 | 28369 ft | 486 kts | 72° |
| 2026-04-20 09:02 | 43.54642 | -74.70874 | 28703 ft | 490 kts | 72° |
| 2026-04-20 09:02 | 43.55754 | -74.66396 | 29039 ft | 494 kts | 72° |
| 2026-04-20 09:02 | 43.56864 | -74.61960 | 29367 ft | 497 kts | 72° |
| 2026-04-20 09:02 | 43.57993 | -74.57426 | 29696 ft | 501 kts | 72° |
| 2026-04-20 09:03 | 43.59127 | -74.52867 | 30092 ft | 503 kts | 72° |
| 2026-04-20 09:03 | 43.60265 | -74.48295 | 30443 ft | 504 kts | 72° |
| 2026-04-20 09:03 | 43.61402 | -74.43714 | 30820 ft | 504 kts | 72° |
| 2026-04-20 09:03 | 43.62533 | -74.39142 | 31167 ft | 504 kts | 72° |
| 2026-04-20 09:04 | 43.63667 | -74.34632 | 31470 ft | 505 kts | 72° |
| 2026-04-20 09:04 | 43.64820 | -74.30022 | 31744 ft | 507 kts | 73° |
| 2026-04-20 09:04 | 43.65967 | -74.25407 | 32006 ft | 509 kts | 73° |
| 2026-04-20 09:04 | 43.66504 | -74.23235 | 32126 ft | 511 kts | 73° |